Terminal Aerodrome Forecast
Issued by NWS El Paso, TX

Home | Current Version | Previous Version | Text Only | Print | Product List | Glossary On
Versions: 1 2 3 4 5 6 7 8 9 10 11 12 13
407
FTUS44 KEPZ 242347
TAFELP
TAF
KELP 242347Z 2500/2524 22006KT P6SM BKN250
     FM250800 05012G19KT P6SM FEW150 SCT250
     FM251800 08010KT P6SM SCT250=

USA.gov is the U.S. government's official web portal to all federal, state and local government web resources and services.